sensor_id;sensor_type;location;lat;lon;timestamp;temperature;humidity
580;DHT22;276;48.392;9.950;2024-02-21T00:01:34;9.10;99.90
580;DHT22;276;48.392;9.950;2024-02-21T00:04:02;9.10;99.90
580;DHT22;276;48.392;9.950;2024-02-21T00:06:30;9.10;99.90
580;DHT22;276;48.392;9.950;2024-02-21T00:09:02;9.10;99.90
580;DHT22;276;48.392;9.950;2024-02-21T00:11:33;9.10;99.90
580;DHT22;276;48.392;9.950;2024-02-21T00:14:01;9.10;99.90
580;DHT22;276;48.392;9.950;2024-02-21T00:16:29;9.10;99.90
580;DHT22;276;48.392;9.950;2024-02-21T00:18:57;9.10;99.90
580;DHT22;276;48.392;9.950;2024-02-21T00:21:22;9.10;99.90
580;DHT22;276;48.392;9.950;2024-02-21T00:23:50;9.20;99.90
580;DHT22;276;48.392;9.950;2024-02-21T00:26:18;9.20;99.90
580;DHT22;276;48.392;9.950;2024-02-21T00:28:44;9.20;99.90
580;DHT22;276;48.392;9.950;2024-02-21T00:31:10;9.20;99.90
580;DHT22;276;48.392;9.950;2024-02-21T00:33:36;9.20;99.90
580;DHT22;276;48.392;9.950;2024-02-21T00:36:04;9.30;99.90
580;DHT22;276;48.392;9.950;2024-02-21T00:38:35;9.30;99.90
580;DHT22;276;48.392;9.950;2024-02-21T00:41:00;9.40;99.90
580;DHT22;276;48.392;9.950;2024-02-21T00:43:28;9.40;99.60
580;DHT22;276;48.392;9.950;2024-02-21T00:45:54;9.40;99.60
580;DHT22;276;48.392;9.950;2024-02-21T00:48:22;9.40;99.60
580;DHT22;276;48.392;9.950;2024-02-21T00:50:52;9.40;99.50
580;DHT22;276;48.392;9.950;2024-02-21T00:53:20;9.40;99.50
580;DHT22;276;48.392;9.950;2024-02-21T00:55:48;9.40;99.50
580;DHT22;276;48.392;9.950;2024-02-21T00:58:16;9.40;99.50
580;DHT22;276;48.392;9.950;2024-02-21T01:00:42;9.40;99.50
580;DHT22;276;48.392;9.950;2024-02-21T01:03:07;9.40;99.30
580;DHT22;276;48.392;9.950;2024-02-21T01:05:35;9.30;99.40
580;DHT22;276;48.392;9.950;2024-02-21T01:08:01;9.30;99.30
580;DHT22;276;48.392;9.950;2024-02-21T01:10:31;9.30;99.30
580;DHT22;276;48.392;9.950;2024-02-21T01:12:57;9.40;99.30
580;DHT22;276;48.392;9.950;2024-02-21T01:15:25;9.40;99.30
580;DHT22;276;48.392;9.950;2024-02-21T01:17:53;9.40;99.30
580;DHT22;276;48.392;9.950;2024-02-21T01:20:21;9.40;99.20
580;DHT22;276;48.392;9.950;2024-02-21T01:22:46;9.30;99.20
580;DHT22;276;48.392;9.950;2024-02-21T01:25:14;9.20;99.40
580;DHT22;276;48.392;9.950;2024-02-21T01:27:40;9.20;99.60
580;DHT22;276;48.392;9.950;2024-02-21T01:30:06;9.10;99.70
580;DHT22;276;48.392;9.950;2024-02-21T01:32:32;9.00;99.80
580;DHT22;276;48.392;9.950;2024-02-21T01:34:58;9.00;99.90
580;DHT22;276;48.392;9.950;2024-02-21T01:37:23;9.00;99.90
580;DHT22;276;48.392;9.950;2024-02-21T01:39:49;9.00;99.90
580;DHT22;276;48.392;9.950;2024-02-21T01:42:16;9.00;99.90
580;DHT22;276;48.392;9.950;2024-02-21T01:44:41;9.10;99.90
580;DHT22;276;48.392;9.950;2024-02-21T01:47:07;9.20;99.90
580;DHT22;276;48.392;9.950;2024-02-21T01:49:36;9.20;99.70
580;DHT22;276;48.392;9.950;2024-02-21T01:52:02;9.30;99.60
580;DHT22;276;48.392;9.950;2024-02-21T01:54:28;9.20;99.40
580;DHT22;276;48.392;9.950;2024-02-21T01:56:56;9.20;99.80
580;DHT22;276;48.392;9.950;2024-02-21T01:59:22;9.30;99.50
580;DHT22;276;48.392;9.950;2024-02-21T02:01:48;9.20;99.40
580;DHT22;276;48.392;9.950;2024-02-21T02:04:15;9.30;99.60
580;DHT22;276;48.392;9.950;2024-02-21T02:06:41;9.30;99.50
580;DHT22;276;48.392;9.950;2024-02-21T02:09:07;9.30;99.40
580;DHT22;276;48.392;9.950;2024-02-21T02:11:33;9.30;99.40
580;DHT22;276;48.392;9.950;2024-02-21T02:14:01;9.40;99.30
580;DHT22;276;48.392;9.950;2024-02-21T02:16:26;9.30;99.20
580;DHT22;276;48.392;9.950;2024-02-21T02:18:54;9.40;99.30
580;DHT22;276;48.392;9.950;2024-02-21T02:21:34;9.40;99.30
580;DHT22;276;48.392;9.950;2024-02-21T02:24:02;9.40;99.30
580;DHT22;276;48.392;9.950;2024-02-21T02:26:28;9.40;99.30
580;DHT22;276;48.392;9.950;2024-02-21T02:28:53;9.40;99.40
580;DHT22;276;48.392;9.950;2024-02-21T02:31:24;9.30;99.40
580;DHT22;276;48.392;9.950;2024-02-21T02:33:54;9.30;99.40
580;DHT22;276;48.392;9.950;2024-02-21T02:36:20;9.20;99.50
580;DHT22;276;48.392;9.950;2024-02-21T02:38:48;9.20;99.50
580;DHT22;276;48.392;9.950;2024-02-21T02:41:13;9.20;99.60
580;DHT22;276;48.392;9.950;2024-02-21T02:43:39;9.10;99.70
580;DHT22;276;48.392;9.950;2024-02-21T02:46:05;9.10;99.90
580;DHT22;276;48.392;9.950;2024-02-21T02:48:33;9.10;99.90
580;DHT22;276;48.392;9.950;2024-02-21T02:51:01;9.00;99.90
580;DHT22;276;48.392;9.950;2024-02-21T02:53:26;9.00;99.90
580;DHT22;276;48.392;9.950;2024-02-21T02:55:52;9.00;99.90
580;DHT22;276;48.392;9.950;2024-02-21T02:58:23;9.00;99.90
580;DHT22;276;48.392;9.950;2024-02-21T03:00:51;9.00;99.90
580;DHT22;276;48.392;9.950;2024-02-21T03:03:22;9.10;99.90
580;DHT22;276;48.392;9.950;2024-02-21T03:05:47;9.10;99.90
580;DHT22;276;48.392;9.950;2024-02-21T03:08:13;9.10;99.90
580;DHT22;276;48.392;9.950;2024-02-21T03:10:39;9.10;99.90
580;DHT22;276;48.392;9.950;2024-02-21T03:13:06;9.00;99.90
580;DHT22;276;48.392;9.950;2024-02-21T03:15:32;9.00;99.90
580;DHT22;276;48.392;9.950;2024-02-21T03:18:00;9.00;99.90
580;DHT22;276;48.392;9.950;2024-02-21T03:20:28;9.00;99.90
580;DHT22;276;48.392;9.950;2024-02-21T03:22:56;9.00;99.90
580;DHT22;276;48.392;9.950;2024-02-21T03:25:22;9.00;99.90
580;DHT22;276;48.392;9.950;2024-02-21T03:27:47;9.00;99.90
580;DHT22;276;48.392;9.950;2024-02-21T03:30:13;8.90;99.90
580;DHT22;276;48.392;9.950;2024-02-21T03:32:38;8.90;99.90
580;DHT22;276;48.392;9.950;2024-02-21T03:35:07;8.90;99.90
580;DHT22;276;48.392;9.950;2024-02-21T03:37:32;9.00;99.90
580;DHT22;276;48.392;9.950;2024-02-21T03:39:58;9.00;99.90
580;DHT22;276;48.392;9.950;2024-02-21T03:42:24;9.00;99.90
580;DHT22;276;48.392;9.950;2024-02-21T03:44:50;9.00;99.90
580;DHT22;276;48.392;9.950;2024-02-21T03:47:16;9.00;99.90
580;DHT22;276;48.392;9.950;2024-02-21T03:49:41;8.90;99.90
580;DHT22;276;48.392;9.950;2024-02-21T03:52:07;8.90;99.90
580;DHT22;276;48.392;9.950;2024-02-21T03:54:36;8.90;99.90
580;DHT22;276;48.392;9.950;2024-02-21T03:57:08;8.90;99.90
580;DHT22;276;48.392;9.950;2024-02-21T03:59:33;8.90;99.90
580;DHT22;276;48.392;9.950;2024-02-21T04:02:01;9.00;99.90
580;DHT22;276;48.392;9.950;2024-02-21T04:04:29;9.00;99.90
580;DHT22;276;48.392;9.950;2024-02-21T04:06:55;9.00;99.90
580;DHT22;276;48.392;9.950;2024-02-21T04:09:20;9.00;99.90
580;DHT22;276;48.392;9.950;2024-02-21T04:11:46;9.10;99.90
580;DHT22;276;48.392;9.950;2024-02-21T04:14:12;9.10;99.90
580;DHT22;276;48.392;9.950;2024-02-21T04:16:37;9.10;99.90
580;DHT22;276;48.392;9.950;2024-02-21T04:19:04;9.10;99.90
580;DHT22;276;48.392;9.950;2024-02-21T04:21:29;9.00;99.90
580;DHT22;276;48.392;9.950;2024-02-21T04:23:55;9.00;99.90
580;DHT22;276;48.392;9.950;2024-02-21T04:26:21;9.00;99.90
580;DHT22;276;48.392;9.950;2024-02-21T04:28:46;8.90;99.90
580;DHT22;276;48.392;9.950;2024-02-21T04:31:12;8.90;99.90
580;DHT22;276;48.392;9.950;2024-02-21T04:33:38;8.90;99.90
580;DHT22;276;48.392;9.950;2024-02-21T04:36:06;8.90;99.90
580;DHT22;276;48.392;9.950;2024-02-21T04:38:34;8.90;99.90
580;DHT22;276;48.392;9.950;2024-02-21T04:41:00;8.90;99.90
580;DHT22;276;48.392;9.950;2024-02-21T04:43:25;8.80;99.90
580;DHT22;276;48.392;9.950;2024-02-21T04:45:51;8.80;99.90
580;DHT22;276;48.392;9.950;2024-02-21T04:48:23;8.70;99.90
580;DHT22;276;48.392;9.950;2024-02-21T04:50:51;8.70;99.90
580;DHT22;276;48.392;9.950;2024-02-21T04:53:19;8.70;99.90
580;DHT22;276;48.392;9.950;2024-02-21T04:55:45;8.80;99.90
580;DHT22;276;48.392;9.950;2024-02-21T04:58:13;8.80;99.90
580;DHT22;276;48.392;9.950;2024-02-21T05:00:39;8.80;99.90
580;DHT22;276;48.392;9.950;2024-02-21T05:03:04;8.80;99.90
580;DHT22;276;48.392;9.950;2024-02-21T05:05:30;8.90;99.90
580;DHT22;276;48.392;9.950;2024-02-21T05:07:56;8.90;99.90
580;DHT22;276;48.392;9.950;2024-02-21T05:10:21;8.90;99.90
580;DHT22;276;48.392;9.950;2024-02-21T05:12:49;9.00;99.90
580;DHT22;276;48.392;9.950;2024-02-21T05:15:15;9.00;99.90
580;DHT22;276;48.392;9.950;2024-02-21T05:17:41;9.00;99.90
580;DHT22;276;48.392;9.950;2024-02-21T05:20:08;9.00;99.90
580;DHT22;276;48.392;9.950;2024-02-21T05:22:34;9.00;99.90
580;DHT22;276;48.392;9.950;2024-02-21T05:25:00;9.00;99.90
580;DHT22;276;48.392;9.950;2024-02-21T05:27:25;9.00;99.90
580;DHT22;276;48.392;9.950;2024-02-21T05:29:53;9.00;99.90
580;DHT22;276;48.392;9.950;2024-02-21T05:32:18;9.00;99.90
580;DHT22;276;48.392;9.950;2024-02-21T05:34:44;9.00;99.90
580;DHT22;276;48.392;9.950;2024-02-21T05:37:09;9.00;99.90
580;DHT22;276;48.392;9.950;2024-02-21T05:39:35;9.00;99.90
580;DHT22;276;48.392;9.950;2024-02-21T05:42:01;9.00;99.90
580;DHT22;276;48.392;9.950;2024-02-21T05:44:29;9.00;99.90
580;DHT22;276;48.392;9.950;2024-02-21T05:46:54;9.00;99.90
580;DHT22;276;48.392;9.950;2024-02-21T05:49:20;9.00;99.90
580;DHT22;276;48.392;9.950;2024-02-21T05:51:46;8.90;99.90
580;DHT22;276;48.392;9.950;2024-02-21T05:54:12;8.90;99.90
580;DHT22;276;48.392;9.950;2024-02-21T05:56:43;8.90;99.90
580;DHT22;276;48.392;9.950;2024-02-21T05:59:09;8.90;99.90
580;DHT22;276;48.392;9.950;2024-02-21T06:01:44;8.90;99.90
580;DHT22;276;48.392;9.950;2024-02-21T06:04:10;8.90;99.90
580;DHT22;276;48.392;9.950;2024-02-21T06:06:35;8.90;99.90
580;DHT22;276;48.392;9.950;2024-02-21T06:09:01;9.00;99.90
580;DHT22;276;48.392;9.950;2024-02-21T06:11:30;9.00;99.90
580;DHT22;276;48.392;9.950;2024-02-21T06:13:56;9.10;99.90
580;DHT22;276;48.392;9.950;2024-02-21T06:16:24;9.10;99.90
580;DHT22;276;48.392;9.950;2024-02-21T06:18:54;9.20;99.90
580;DHT22;276;48.392;9.950;2024-02-21T06:21:22;9.30;99.90
580;DHT22;276;48.392;9.950;2024-02-21T06:23:50;9.30;99.90
580;DHT22;276;48.392;9.950;2024-02-21T06:26:20;9.30;99.90
580;DHT22;276;48.392;9.950;2024-02-21T06:28:46;9.40;99.90
580;DHT22;276;48.392;9.950;2024-02-21T06:31:14;9.40;99.90
580;DHT22;276;48.392;9.950;2024-02-21T06:33:42;9.40;99.90
580;DHT22;276;48.392;9.950;2024-02-21T06:36:10;9.40;99.90
580;DHT22;276;48.392;9.950;2024-02-21T06:38:35;9.40;99.90
580;DHT22;276;48.392;9.950;2024-02-21T06:41:01;9.30;99.90
580;DHT22;276;48.392;9.950;2024-02-21T06:43:28;9.30;99.90
580;DHT22;276;48.392;9.950;2024-02-21T06:45:56;9.30;99.90
580;DHT22;276;48.392;9.950;2024-02-21T06:48:22;9.40;99.90
580;DHT22;276;48.392;9.950;2024-02-21T06:50:50;9.30;99.90
580;DHT22;276;48.392;9.950;2024-02-21T06:53:19;9.30;99.90
580;DHT22;276;48.392;9.950;2024-02-21T06:55:49;9.20;99.90
580;DHT22;276;48.392;9.950;2024-02-21T06:58:14;9.30;99.90
580;DHT22;276;48.392;9.950;2024-02-21T07:00:44;9.30;99.90
580;DHT22;276;48.392;9.950;2024-02-21T07:03:12;9.30;99.90
580;DHT22;276;48.392;9.950;2024-02-21T07:05:40;9.30;99.90
580;DHT22;276;48.392;9.950;2024-02-21T07:08:08;9.30;99.90
580;DHT22;276;48.392;9.950;2024-02-21T07:10:34;9.40;99.90
580;DHT22;276;48.392;9.950;2024-02-21T07:13:03;9.40;99.90
580;DHT22;276;48.392;9.950;2024-02-21T07:15:31;9.40;99.90
580;DHT22;276;48.392;9.950;2024-02-21T07:17:58;9.40;99.90
580;DHT22;276;48.392;9.950;2024-02-21T07:20:26;9.40;99.90
580;DHT22;276;48.392;9.950;2024-02-21T07:22:57;9.50;99.90
580;DHT22;276;48.392;9.950;2024-02-21T07:25:25;9.50;99.90
580;DHT22;276;48.392;9.950;2024-02-21T07:27:53;9.50;99.90
580;DHT22;276;48.392;9.950;2024-02-21T07:30:19;9.60;99.90
580;DHT22;276;48.392;9.950;2024-02-21T07:32:44;9.50;99.90
580;DHT22;276;48.392;9.950;2024-02-21T07:35:10;9.50;99.90
580;DHT22;276;48.392;9.950;2024-02-21T07:37:39;9.50;99.90
580;DHT22;276;48.392;9.950;2024-02-21T07:40:06;9.50;99.90
580;DHT22;276;48.392;9.950;2024-02-21T07:42:32;9.50;99.90
580;DHT22;276;48.392;9.950;2024-02-21T07:44:58;9.50;99.90
580;DHT22;276;48.392;9.950;2024-02-21T07:47:28;9.50;99.90
580;DHT22;276;48.392;9.950;2024-02-21T07:49:54;9.60;99.90
580;DHT22;276;48.392;9.950;2024-02-21T07:52:20;9.70;99.90
580;DHT22;276;48.392;9.950;2024-02-21T07:54:45;9.80;99.90
580;DHT22;276;48.392;9.950;2024-02-21T07:57:11;9.90;99.90
580;DHT22;276;48.392;9.950;2024-02-21T07:59:37;9.90;99.90
580;DHT22;276;48.392;9.950;2024-02-21T08:02:05;10.00;99.90
580;DHT22;276;48.392;9.950;2024-02-21T08:04:32;10.00;99.90
580;DHT22;276;48.392;9.950;2024-02-21T08:07:00;10.00;99.90
580;DHT22;276;48.392;9.950;2024-02-21T08:09:30;10.00;99.90
580;DHT22;276;48.392;9.950;2024-02-21T08:11:55;10.00;99.90
580;DHT22;276;48.392;9.950;2024-02-21T08:14:22;10.00;99.90
580;DHT22;276;48.392;9.950;2024-02-21T08:16:50;10.00;99.90
580;DHT22;276;48.392;9.950;2024-02-21T08:19:16;10.00;99.90
580;DHT22;276;48.392;9.950;2024-02-21T08:21:46;10.10;99.90
580;DHT22;276;48.392;9.950;2024-02-21T08:24:15;10.10;99.90
580;DHT22;276;48.392;9.950;2024-02-21T08:26:41;10.20;99.90
580;DHT22;276;48.392;9.950;2024-02-21T08:29:07;10.30;99.90
580;DHT22;276;48.392;9.950;2024-02-21T08:31:35;10.30;99.90
580;DHT22;276;48.392;9.950;2024-02-21T08:34:01;10.30;99.90
580;DHT22;276;48.392;9.950;2024-02-21T08:36:33;10.30;99.90
580;DHT22;276;48.392;9.950;2024-02-21T08:39:00;10.40;99.90
580;DHT22;276;48.392;9.950;2024-02-21T08:41:27;10.40;99.90
580;DHT22;276;48.392;9.950;2024-02-21T08:43:57;10.40;99.90
580;DHT22;276;48.392;9.950;2024-02-21T08:46:24;10.50;99.90
580;DHT22;276;48.392;9.950;2024-02-21T08:48:52;10.60;99.90
580;DHT22;276;48.392;9.950;2024-02-21T08:51:19;10.70;99.90
580;DHT22;276;48.392;9.950;2024-02-21T08:53:48;10.70;99.90
580;DHT22;276;48.392;9.950;2024-02-21T08:56:14;10.80;99.90
580;DHT22;276;48.392;9.950;2024-02-21T08:58:45;10.90;99.90
580;DHT22;276;48.392;9.950;2024-02-21T09:01:11;11.00;99.90
580;DHT22;276;48.392;9.950;2024-02-21T09:03:37;11.00;99.90
580;DHT22;276;48.392;9.950;2024-02-21T09:06:05;11.10;99.90
580;DHT22;276;48.392;9.950;2024-02-21T09:08:34;11.10;99.90
580;DHT22;276;48.392;9.950;2024-02-21T09:11:02;11.20;99.90
580;DHT22;276;48.392;9.950;2024-02-21T09:13:31;11.10;99.90
580;DHT22;276;48.392;9.950;2024-02-21T09:15:56;11.10;99.90
580;DHT22;276;48.392;9.950;2024-02-21T09:18:25;11.10;99.80
580;DHT22;276;48.392;9.950;2024-02-21T09:20:50;11.10;99.90
580;DHT22;276;48.392;9.950;2024-02-21T09:23:20;11.20;99.90
580;DHT22;276;48.392;9.950;2024-02-21T09:25:49;11.20;99.90
580;DHT22;276;48.392;9.950;2024-02-21T09:28:14;11.10;99.90
580;DHT22;276;48.392;9.950;2024-02-21T09:30:42;11.10;99.90
580;DHT22;276;48.392;9.950;2024-02-21T09:33:11;11.00;99.90
580;DHT22;276;48.392;9.950;2024-02-21T09:35:39;11.00;99.90
580;DHT22;276;48.392;9.950;2024-02-21T09:38:07;11.00;99.90
580;DHT22;276;48.392;9.950;2024-02-21T09:40:32;11.00;99.90
580;DHT22;276;48.392;9.950;2024-02-21T09:43:06;11.00;99.90
580;DHT22;276;48.392;9.950;2024-02-21T09:45:33;11.00;99.90
580;DHT22;276;48.392;9.950;2024-02-21T09:50:55;10.90;99.90
580;DHT22;276;48.392;9.950;2024-02-21T09:53:24;10.90;99.90
580;DHT22;276;48.392;9.950;2024-02-21T09:55:50;10.90;99.90
580;DHT22;276;48.392;9.950;2024-02-21T09:58:19;10.80;99.90
580;DHT22;276;48.392;9.950;2024-02-21T10:00:45;10.80;99.90
580;DHT22;276;48.392;9.950;2024-02-21T10:03:10;10.80;99.90
580;DHT22;276;48.392;9.950;2024-02-21T10:05:37;10.90;99.90
580;DHT22;276;48.392;9.950;2024-02-21T10:08:03;11.00;99.90
580;DHT22;276;48.392;9.950;2024-02-21T10:10:45;11.10;99.90
580;DHT22;276;48.392;9.950;2024-02-21T10:13:21;11.20;99.90
580;DHT22;276;48.392;9.950;2024-02-21T10:15:47;11.30;99.90
580;DHT22;276;48.392;9.950;2024-02-21T10:18:17;11.40;99.90
580;DHT22;276;48.392;9.950;2024-02-21T10:20:43;11.50;99.90
580;DHT22;276;48.392;9.950;2024-02-21T10:23:12;11.70;99.90
580;DHT22;276;48.392;9.950;2024-02-21T10:25:40;11.80;99.90
580;DHT22;276;48.392;9.950;2024-02-21T10:28:14;12.00;99.50
580;DHT22;276;48.392;9.950;2024-02-21T10:30:50;12.10;99.00
580;DHT22;276;48.392;9.950;2024-02-21T10:33:17;12.30;99.00
580;DHT22;276;48.392;9.950;2024-02-21T10:35:46;12.40;98.80
580;DHT22;276;48.392;9.950;2024-02-21T10:38:12;12.60;98.40
580;DHT22;276;48.392;9.950;2024-02-21T10:40:38;12.60;98.20
580;DHT22;276;48.392;9.950;2024-02-21T10:43:06;12.70;98.20
580;DHT22;276;48.392;9.950;2024-02-21T10:45:37;12.70;97.70
580;DHT22;276;48.392;9.950;2024-02-21T10:48:14;12.80;97.50
580;DHT22;276;48.392;9.950;2024-02-21T10:53:44;12.90;96.70
580;DHT22;276;48.392;9.950;2024-02-21T10:56:26;12.90;96.60
580;DHT22;276;48.392;9.950;2024-02-21T10:58:54;13.00;96.60
580;DHT22;276;48.392;9.950;2024-02-21T11:01:22;13.10;96.90
580;DHT22;276;48.392;9.950;2024-02-21T11:03:53;13.50;96.80
580;DHT22;276;48.392;9.950;2024-02-21T11:06:22;13.90;96.00
580;DHT22;276;48.392;9.950;2024-02-21T11:09:02;14.00;95.20
580;DHT22;276;48.392;9.950;2024-02-21T11:11:28;14.40;95.20
580;DHT22;276;48.392;9.950;2024-02-21T11:14:07;14.80;94.70
580;DHT22;276;48.392;9.950;2024-02-21T11:16:43;15.00;93.60
580;DHT22;276;48.392;9.950;2024-02-21T11:19:25;15.10;93.00
580;DHT22;276;48.392;9.950;2024-02-21T11:21:52;15.40;92.70
580;DHT22;276;48.392;9.950;2024-02-21T11:24:33;15.70;91.80
580;DHT22;276;48.392;9.950;2024-02-21T11:27:12;15.80;91.00
580;DHT22;276;48.392;9.950;2024-02-21T11:29:57;15.70;90.70
580;DHT22;276;48.392;9.950;2024-02-21T11:32:26;15.60;90.70
580;DHT22;276;48.392;9.950;2024-02-21T11:37:32;15.50;90.70
580;DHT22;276;48.392;9.950;2024-02-21T11:40:09;15.30;90.80
580;DHT22;276;48.392;9.950;2024-02-21T11:42:38;15.00;91.10
580;DHT22;276;48.392;9.950;2024-02-21T11:45:04;14.70;91.10
580;DHT22;276;48.392;9.950;2024-02-21T11:47:30;14.50;91.60
580;DHT22;276;48.392;9.950;2024-02-21T11:49:55;14.50;91.80
580;DHT22;276;48.392;9.950;2024-02-21T11:52:22;14.40;91.40
580;DHT22;276;48.392;9.950;2024-02-21T11:54:53;14.30;91.50
580;DHT22;276;48.392;9.950;2024-02-21T11:57:23;14.00;91.00
580;DHT22;276;48.392;9.950;2024-02-21T11:59:51;13.90;91.40
580;DHT22;276;48.392;9.950;2024-02-21T12:02:20;13.80;91.50
580;DHT22;276;48.392;9.950;2024-02-21T12:04:45;13.80;91.80
580;DHT22;276;48.392;9.950;2024-02-21T12:07:11;13.80;92.00
580;DHT22;276;48.392;9.950;2024-02-21T12:09:37;13.60;91.90
580;DHT22;276;48.392;9.950;2024-02-21T12:12:04;13.50;92.30
580;DHT22;276;48.392;9.950;2024-02-21T12:14:31;13.40;92.50
580;DHT22;276;48.392;9.950;2024-02-21T12:16:58;13.30;92.50
580;DHT22;276;48.392;9.950;2024-02-21T12:19:29;13.20;92.60
580;DHT22;276;48.392;9.950;2024-02-21T12:21:54;13.20;92.90
580;DHT22;276;48.392;9.950;2024-02-21T12:24:24;13.00;93.00
580;DHT22;276;48.392;9.950;2024-02-21T12:26:53;13.00;93.20
580;DHT22;276;48.392;9.950;2024-02-21T12:29:22;13.00;93.20
580;DHT22;276;48.392;9.950;2024-02-21T12:31:51;13.00;92.90
580;DHT22;276;48.392;9.950;2024-02-21T12:34:17;12.90;93.00
580;DHT22;276;48.392;9.950;2024-02-21T12:36:48;12.90;93.10
580;DHT22;276;48.392;9.950;2024-02-21T12:39:14;13.00;92.70
580;DHT22;276;48.392;9.950;2024-02-21T12:41:40;13.00;92.40
580;DHT22;276;48.392;9.950;2024-02-21T12:44:08;13.10;92.40
580;DHT22;276;48.392;9.950;2024-02-21T12:46:34;13.30;92.40
580;DHT22;276;48.392;9.950;2024-02-21T12:49:03;13.40;91.90
580;DHT22;276;48.392;9.950;2024-02-21T12:51:32;13.60;92.20
580;DHT22;276;48.392;9.950;2024-02-21T12:53:58;13.80;92.10
580;DHT22;276;48.392;9.950;2024-02-21T12:56:26;13.90;90.60
580;DHT22;276;48.392;9.950;2024-02-21T12:58:53;13.90;90.70
580;DHT22;276;48.392;9.950;2024-02-21T13:01:18;13.80;90.90
580;DHT22;276;48.392;9.950;2024-02-21T13:03:44;13.90;91.10
580;DHT22;276;48.392;9.950;2024-02-21T13:06:12;14.00;90.90
580;DHT22;276;48.392;9.950;2024-02-21T13:08:39;14.00;90.80
580;DHT22;276;48.392;9.950;2024-02-21T13:11:05;13.90;90.50
580;DHT22;276;48.392;9.950;2024-02-21T13:13:31;13.80;90.50
580;DHT22;276;48.392;9.950;2024-02-21T13:16:00;13.80;90.50
580;DHT22;276;48.392;9.950;2024-02-21T13:18:28;13.90;90.60
580;DHT22;276;48.392;9.950;2024-02-21T13:20:54;14.00;90.60
580;DHT22;276;48.392;9.950;2024-02-21T13:23:22;14.00;90.70
580;DHT22;276;48.392;9.950;2024-02-21T13:25:47;14.00;90.70
580;DHT22;276;48.392;9.950;2024-02-21T13:28:16;13.90;90.50
580;DHT22;276;48.392;9.950;2024-02-21T13:30:42;13.80;90.50
580;DHT22;276;48.392;9.950;2024-02-21T13:33:08;13.90;90.80
580;DHT22;276;48.392;9.950;2024-02-21T13:35:36;13.80;90.40
580;DHT22;276;48.392;9.950;2024-02-21T13:38:04;13.80;90.50
580;DHT22;276;48.392;9.950;2024-02-21T13:40:30;13.70;90.30
580;DHT22;276;48.392;9.950;2024-02-21T13:42:56;13.70;90.70
580;DHT22;276;48.392;9.950;2024-02-21T13:45:22;13.60;90.60
580;DHT22;276;48.392;9.950;2024-02-21T13:47:47;13.60;90.80
580;DHT22;276;48.392;9.950;2024-02-21T13:50:14;13.60;91.00
580;DHT22;276;48.392;9.950;2024-02-21T13:52:41;13.60;91.00
580;DHT22;276;48.392;9.950;2024-02-21T13:55:09;13.60;90.40
580;DHT22;276;48.392;9.950;2024-02-21T13:57:36;13.50;88.60
580;DHT22;276;48.392;9.950;2024-02-21T14:00:05;13.50;88.20
580;DHT22;276;48.392;9.950;2024-02-21T14:02:36;13.40;87.20
580;DHT22;276;48.392;9.950;2024-02-21T14:05:02;13.30;86.60
580;DHT22;276;48.392;9.950;2024-02-21T14:07:31;13.30;87.00
580;DHT22;276;48.392;9.950;2024-02-21T14:09:58;13.20;87.50
580;DHT22;276;48.392;9.950;2024-02-21T14:12:24;13.20;87.00
580;DHT22;276;48.392;9.950;2024-02-21T14:14:50;13.10;87.00
580;DHT22;276;48.392;9.950;2024-02-21T14:17:15;13.20;87.00
580;DHT22;276;48.392;9.950;2024-02-21T14:19:41;13.10;87.50
580;DHT22;276;48.392;9.950;2024-02-21T14:22:07;13.20;87.60
580;DHT22;276;48.392;9.950;2024-02-21T14:24:36;13.10;87.70
580;DHT22;276;48.392;9.950;2024-02-21T14:27:02;13.10;88.30
580;DHT22;276;48.392;9.950;2024-02-21T14:29:31;13.20;88.80
580;DHT22;276;48.392;9.950;2024-02-21T14:32:01;13.10;89.00
580;DHT22;276;48.392;9.950;2024-02-21T14:34:30;13.10;88.80
580;DHT22;276;48.392;9.950;2024-02-21T14:36:56;13.00;88.70
580;DHT22;276;48.392;9.950;2024-02-21T14:39:24;13.00;88.90
580;DHT22;276;48.392;9.950;2024-02-21T14:41:53;13.10;89.50
580;DHT22;276;48.392;9.950;2024-02-21T14:44:19;13.10;89.60
580;DHT22;276;48.392;9.950;2024-02-21T14:46:44;13.10;89.70
580;DHT22;276;48.392;9.950;2024-02-21T14:49:12;13.20;89.80
580;DHT22;276;48.392;9.950;2024-02-21T14:51:40;13.30;90.00
580;DHT22;276;48.392;9.950;2024-02-21T14:54:05;13.30;90.00
580;DHT22;276;48.392;9.950;2024-02-21T14:56:31;13.20;90.00
580;DHT22;276;48.392;9.950;2024-02-21T14:58:59;13.20;90.20
580;DHT22;276;48.392;9.950;2024-02-21T15:01:24;13.10;90.40
580;DHT22;276;48.392;9.950;2024-02-21T15:03:50;13.00;90.60
580;DHT22;276;48.392;9.950;2024-02-21T15:06:16;13.00;90.90
580;DHT22;276;48.392;9.950;2024-02-21T15:08:42;13.00;91.00
580;DHT22;276;48.392;9.950;2024-02-21T15:11:08;13.10;91.10
580;DHT22;276;48.392;9.950;2024-02-21T15:13:36;13.10;91.20
580;DHT22;276;48.392;9.950;2024-02-21T15:16:05;13.10;91.30
580;DHT22;276;48.392;9.950;2024-02-21T15:18:30;13.20;91.40
580;DHT22;276;48.392;9.950;2024-02-21T15:20:58;13.20;91.20
580;DHT22;276;48.392;9.950;2024-02-21T15:23:29;13.20;91.30
580;DHT22;276;48.392;9.950;2024-02-21T15:25:57;13.20;91.30
580;DHT22;276;48.392;9.950;2024-02-21T15:28:24;13.20;91.40
580;DHT22;276;48.392;9.950;2024-02-21T15:30:50;13.10;91.30
580;DHT22;276;48.392;9.950;2024-02-21T15:33:15;13.10;91.30
580;DHT22;276;48.392;9.950;2024-02-21T15:35:41;13.10;91.40
580;DHT22;276;48.392;9.950;2024-02-21T15:38:09;13.10;91.50
580;DHT22;276;48.392;9.950;2024-02-21T15:40:35;13.00;91.40
580;DHT22;276;48.392;9.950;2024-02-21T15:43:02;13.00;91.40
580;DHT22;276;48.392;9.950;2024-02-21T15:45:27;12.90;91.30
580;DHT22;276;48.392;9.950;2024-02-21T15:47:53;12.90;91.40
580;DHT22;276;48.392;9.950;2024-02-21T15:50:20;12.80;91.50
580;DHT22;276;48.392;9.950;2024-02-21T15:52:45;12.70;91.50
580;DHT22;276;48.392;9.950;2024-02-21T15:55:11;12.70;91.60
580;DHT22;276;48.392;9.950;2024-02-21T15:57:38;12.80;91.80
580;DHT22;276;48.392;9.950;2024-02-21T16:00:07;12.80;91.70
580;DHT22;276;48.392;9.950;2024-02-21T16:02:40;12.80;91.80
580;DHT22;276;48.392;9.950;2024-02-21T16:05:09;12.70;91.80
580;DHT22;276;48.392;9.950;2024-02-21T16:07:36;12.70;91.90
580;DHT22;276;48.392;9.950;2024-02-21T16:10:03;12.70;92.00
580;DHT22;276;48.392;9.950;2024-02-21T16:12:31;12.70;92.00
580;DHT22;276;48.392;9.950;2024-02-21T16:14:56;12.70;91.90
580;DHT22;276;48.392;9.950;2024-02-21T16:17:22;12.70;91.80
580;DHT22;276;48.392;9.950;2024-02-21T16:19:50;12.60;91.40
580;DHT22;276;48.392;9.950;2024-02-21T16:22:18;12.60;91.40
580;DHT22;276;48.392;9.950;2024-02-21T16:24:49;12.60;91.40
580;DHT22;276;48.392;9.950;2024-02-21T16:27:15;12.50;91.50
580;DHT22;276;48.392;9.950;2024-02-21T16:29:42;12.50;91.50
580;DHT22;276;48.392;9.950;2024-02-21T16:32:08;12.50;91.60
580;DHT22;276;48.392;9.950;2024-02-21T16:34:34;12.60;91.70
580;DHT22;276;48.392;9.950;2024-02-21T16:37:01;12.60;91.80
580;DHT22;276;48.392;9.950;2024-02-21T16:39:27;12.60;91.90
580;DHT22;276;48.392;9.950;2024-02-21T16:41:53;12.60;92.00
580;DHT22;276;48.392;9.950;2024-02-21T16:44:21;12.50;92.10
580;DHT22;276;48.392;9.950;2024-02-21T16:46:50;12.50;92.30
580;DHT22;276;48.392;9.950;2024-02-21T16:49:15;12.40;92.30
580;DHT22;276;48.392;9.950;2024-02-21T16:51:43;12.40;92.50